Ramsgate, United Kingdom
Current Conditions -  °F | °C
As of 2:20 PM on Sunday 25 Jan 2015 (Local Time) from EGMD Reporting Station
Broken Clouds Broken Clouds  
Wind Chill: 40°   Ceiling: 3300
Heat Index: 46°   Visibility: 6mi
Dew Point: 41°   Wind: 14mph
Humidity: 81%   Direction: 230°SW
Pressure: 30.42"   Gusts: NA
Location:  51.33°N, 1.42°E
Report Text: EGMD 251420Z 23012KT 9999 BKN033 08/05 Q1030
Loading
Personal Weather Stations






























Interactive Weather Map New forecast layout! Learn more

10-Day Weather Forecast

Advertisements
Track Severe Weather on mobile